Time;durP1;ratioP1;P1;durP2;ratioP2;P2;SDS_P1;SDS_P2;PMS_P1;PMS_P2;Temp;Humidity;BMP_temperature;BMP_pressure;BME280_temperature;BME280_humidity;BME280_pressure;Samples;Min_cycle;Max_cycle;Signal;HPM_P1;HPM_P2
2022/11/01 00:02:04;;;;;;;6.58;3.00;;;;;;;2.79;100.00;100269.57;1771202;78;20423;-63
2022/11/01 00:04:31;;;;;;;5.60;3.35;;;;;;;2.76;100.00;100261.80;1747559;80;21601;-63
2022/11/01 00:06:59;;;;;;;7.03;3.20;;;;;;;2.77;100.00;100259.21;1748101;79;21503;-62
2022/11/01 00:09:25;;;;;;;7.20;3.67;;;;;;;2.78;100.00;100261.36;1777451;79;20939;-64
2022/11/01 00:11:54;;;;;;;4.62;3.37;;;;;;;2.77;100.00;100260.92;1766352;78;21558;-62
2022/11/01 00:14:20;;;;;;;3.75;3.30;;;;;;;2.75;100.00;100257.46;1759455;79;20974;-62
2022/11/01 00:16:47;;;;;;;5.75;3.12;;;;;;;2.72;100.00;100258.34;1750150;79;21578;-65
2022/11/01 00:19:15;;;;;;;8.93;3.60;;;;;;;2.71;100.00;100257.89;1778715;78;21057;-62
2022/11/01 00:21:42;;;;;;;6.22;3.47;;;;;;;2.69;100.00;100254.03;1822736;75;21661;-62
2022/11/01 00:24:09;;;;;;;6.75;3.52;;;;;;;2.73;100.00;100257.45;1826634;75;21835;-62
2022/11/01 00:26:36;;;;;;;5.67;3.65;;;;;;;2.74;100.00;100252.70;1767007;78;20998;-62
2022/11/01 00:29:03;;;;;;;7.00;3.98;;;;;;;2.77;100.00;100257.91;1800177;78;21646;-62
2022/11/01 00:31:30;;;;;;;6.05;3.72;;;;;;;2.80;100.00;100255.73;1785086;78;21545;-62
2022/11/01 00:33:56;;;;;;;8.65;4.53;;;;;;;2.81;100.00;100255.73;1763184;79;21576;-63
2022/11/01 00:36:23;;;;;;;5.85;4.25;;;;;;;2.86;100.00;100255.30;1763390;80;21892;-63
2022/11/01 00:38:51;;;;;;;5.85;4.15;;;;;;;2.89;100.00;100257.02;1736546;80;21592;-63
2022/11/01 00:41:19;;;;;;;6.42;4.83;;;;;;;2.89;100.00;100252.69;1736635;80;21012;-62
2022/11/01 00:43:45;;;;;;;;;;;;;;;2.93;100.00;100253.10;1754095;79;21555;-62
2022/11/01 00:46:12;;;;;;;5.25;4.12;;;;;;;2.92;100.00;100255.28;1760004;78;20426;-64
2022/11/01 00:48:40;;;;;;;6.75;3.92;;;;;;;2.97;100.00;100254.41;1776677;78;21529;-64
2022/11/01 00:51:07;;;;;;;5.20;3.58;;;;;;;3.01;100.00;100256.12;1764648;79;21685;-64
2022/11/01 00:53:34;;;;;;;6.35;3.72;;;;;;;3.04;100.00;100258.28;1760309;79;21447;-64
2022/11/01 00:56:04;;;;;;;4.28;3.42;;;;;;;3.04;100.00;100259.58;1758501;79;21595;-64
2022/11/01 00:58:31;;;;;;;6.25;3.77;;;;;;;3.03;100.00;100260.47;1744262;79;21427;-64
2022/11/01 01:00:57;;;;;;;4.58;3.22;;;;;;;3.01;100.00;100261.32;1771254;79;21750;-64
2022/11/01 01:03:24;;;;;;;6.05;3.45;;;;;;;3.02;100.00;100258.72;1753998;78;21526;-64
2022/11/01 01:05:52;;;;;;;3.30;3.00;;;;;;;3.06;100.00;100260.88;1795324;78;21538;-64
2022/11/01 01:08:20;;;;;;;5.05;3.42;;;;;;;3.05;100.00;100261.33;1783437;78;21902;-64
2022/11/01 01:10:46;;;;;;;5.62;3.55;;;;;;;3.05;100.00;100260.03;1795922;77;21140;-65
2022/11/01 01:13:13;;;;;;;4.67;3.30;;;;;;;3.04;100.00;100255.69;1778291;78;21898;-64
2022/11/01 01:15:40;;;;;;;4.30;3.33;;;;;;;3.02;100.00;100256.12;1776832;78;21609;-64
2022/11/01 01:18:07;;;;;;;4.78;3.08;;;;;;;3.02;100.00;100257.42;1795584;78;21530;-65
2022/11/01 01:20:34;;;;;;;5.67;3.25;;;;;;;3.01;100.00;100253.53;1787277;78;21556;-64
2022/11/01 01:23:00;;;;;;;4.53;3.02;;;;;;;2.99;100.00;100260.02;1753498;79;21520;-64
2022/11/01 01:25:28;;;;;;;3.87;3.08;;;;;;;2.99;100.00;100261.31;1790645;79;21737;-64
2022/11/01 01:27:55;;;;;;;5.78;3.25;;;;;;;2.97;100.00;100260.45;1759219;78;21484;-64
2022/11/01 01:30:21;;;;;;;3.75;3.15;;;;;;;2.97;100.00;100259.16;1749171;80;21098;-64
2022/11/01 01:32:49;;;;;;;3.90;2.85;;;;;;;2.98;100.00;100260.05;1753894;79;21529;-64
2022/11/01 01:35:16;;;;;;;7.03;2.85;;;;;;;2.99;100.00;100258.72;1745556;80;21540;-64
2022/11/01 01:37:44;;;;;;;4.20;3.02;;;;;;;2.99;100.00;100260.46;1769862;79;21475;-64
2022/11/01 01:40:11;;;;;;;5.67;3.02;;;;;;;2.97;100.00;100255.27;1776186;77;22815;-64
2022/11/01 01:42:40;;;;;;;6.33;3.30;;;;;;;2.93;100.00;100253.10;1775050;78;21516;-64
2022/11/01 01:45:28;;;;;;;;;;;;;;;2.95;100.00;100257.45;1771410;78;20976;-64
2022/11/01 01:48:13;;;;;;;5.85;2.65;;;;;;;2.86;100.00;100251.41;1769790;78;20425;-63
2022/11/01 01:51:01;;;;;;;4.58;3.10;;;;;;;2.85;100.00;100257.91;1760202;78;21805;-63
2022/11/01 01:53:34;;;;;;;3.90;3.10;;;;;;;2.82;100.00;100250.10;1769109;79;21133;-63
2022/11/01 01:56:05;;;;;;;6.92;3.37;;;;;;;2.81;100.00;100249.69;1774840;79;21480;-62
2022/11/01 01:58:46;;;;;;;8.55;3.50;;;;;;;2.80;100.00;100247.50;1783504;78;21449;-61
2022/11/01 02:01:13;;;;;;;4.72;3.25;;;;;;;2.82;100.00;100250.10;1761705;79;21606;-62
2022/11/01 02:03:40;;;;;;;8.23;3.35;;;;;;;2.81;100.00;100245.34;1784896;78;21922;-61
2022/11/01 02:06:14;;;;;;;4.10;3.12;;;;;;;2.81;100.00;100254.88;1766754;80;21422;-61
2022/11/01 02:08:44;;;;;;;5.78;3.72;;;;;;;2.77;100.00;100255.31;1821942;75;21485;-60
2022/11/01 02:11:11;;;;;;;7.45;3.52;;;;;;;2.73;100.00;100258.34;1793803;77;21609;-60
2022/11/01 02:13:39;;;;;;;4.42;2.98;;;;;;;2.73;100.00;100260.05;1804044;77;21094;-60
2022/11/01 02:16:46;;;;;;;6.12;3.33;;;;;;;2.68;100.00;100267.01;1816663;76;21728;-61
2022/11/01 02:19:40;;;;;;;4.28;2.95;;;;;;;2.65;100.00;100263.95;1832416;75;21732;-61
2022/11/01 02:22:13;;;;;;;4.53;3.30;;;;;;;2.59;100.00;100269.16;1789297;77;21542;-61
2022/11/01 02:25:22;;;;;;;5.72;3.08;;;;;;;2.57;100.00;100268.74;1840961;75;21404;-61
2022/11/01 02:28:24;;;;;;;7.62;3.22;;;;;;;2.56;100.00;100270.45;1811347;76;21542;-61
2022/11/01 02:31:14;;;;;;;4.75;3.20;;;;;;;2.55;100.00;100270.03;1802109;77;21907;-62
2022/11/01 02:33:45;;;;;;;5.45;3.27;;;;;;;2.51;100.00;100271.77;1809055;76;21428;-61
2022/11/01 02:36:20;;;;;;;4.78;2.80;;;;;;;2.52;100.00;100274.80;1829603;76;21529;-61
2022/11/01 02:38:54;;;;;;;7.55;3.50;;;;;;;2.51;100.00;100272.20;1792192;76;21539;-62
2022/11/01 02:41:26;;;;;;;5.15;3.05;;;;;;;2.54;100.00;100273.48;1794168;77;21578;-61
2022/11/01 02:44:02;;;;;;;4.80;2.62;;;;;;;2.56;100.00;100271.75;1810185;76;21552;-62
2022/11/01 02:49:24;;;;;;;6.20;2.90;;;;;;;2.53;100.00;100286.91;1820176;76;21593;-61
2022/11/01 02:51:52;;;;;;;4.22;3.08;;;;;;;2.47;100.00;100291.24;1813943;77;21038;-61
2022/11/01 02:54:23;;;;;;;5.85;3.17;;;;;;;2.47;100.00;100284.31;1796303;77;21676;-61
2022/11/01 02:56:50;;;;;;;5.65;2.85;;;;;;;2.43;100.00;100292.08;1811907;76;23196;-61
2022/11/01 02:59:25;;;;;;;5.37;2.80;;;;;;;2.42;100.00;100291.66;1812077;75;21514;-62
2022/11/01 03:02:06;;;;;;;3.90;3.25;;;;;;;2.44;100.00;100292.09;1830843;76;21580;-63
2022/11/01 03:04:34;;;;;;;4.90;2.77;;;;;;;2.42;100.00;100292.52;1822651;76;21397;-63
2022/11/01 03:07:04;;;;;;;4.08;3.00;;;;;;;2.44;100.00;100299.02;1789589;77;21594;-65
2022/11/01 03:09:31;;;;;;;6.17;3.27;;;;;;;2.43;100.00;100302.05;1784312;77;22182;-63
2022/11/01 03:12:06;;;;;;;5.47;2.95;;;;;;;2.40;100.00;100300.74;1832137;76;21459;-63
2022/11/01 03:14:56;;;;;;;5.05;3.42;;;;;;;2.38;100.00;100300.31;1813583;77;21417;-63
2022/11/01 03:17:46;;;;;;;4.12;3.17;;;;;;;2.36;100.00;100302.91;1819176;77;21531;-61
2022/11/01 03:20:18;;;;;;;3.77;3.10;;;;;;;2.35;100.00;100305.05;1825961;75;21421;-61
2022/11/01 03:22:53;;;;;;;3.98;3.33;;;;;;;2.36;100.00;100303.34;1808753;76;21822;-62
2022/11/01 03:25:43;;;;;;;5.70;3.85;;;;;;;2.36;100.00;100299.45;1790250;77;21067;-62
2022/11/01 03:28:48;;;;;;;6.15;3.20;;;;;;;2.37;100.00;100298.57;1814475;77;21487;-61
2022/11/01 03:31:21;;;;;;;8.43;3.80;;;;;;;2.34;100.00;100297.70;1801810;77;21446;-60
2022/11/01 03:33:53;;;;;;;4.70;2.92;;;;;;;2.34;100.00;100297.70;1816626;77;21477;-62
2022/11/01 03:36:22;;;;;;;4.20;2.77;;;;;;;2.37;100.00;100294.67;1827377;76;21826;-61
2022/11/01 03:38:54;;;;;;;5.45;3.08;;;;;;;2.39;100.00;100292.51;1815800;76;21042;-61
2022/11/01 03:41:20;;;;;;;5.08;2.77;;;;;;;2.41;100.00;100294.70;1831496;76;21410;-62
2022/11/01 03:43:47;;;;;;;4.87;2.83;;;;;;;2.43;100.00;100295.97;1820588;77;21545;-62
2022/11/01 03:46:13;;;;;;;5.15;2.45;;;;;;;2.44;100.00;100293.83;1774332;78;21150;-62
2022/11/01 03:48:40;;;;;;;4.30;2.80;;;;;;;2.38;100.00;100290.80;1776350;78;21938;-63
2022/11/01 03:51:07;;;;;;;5.25;2.20;;;;;;;2.43;100.00;100289.48;1772019;79;21546;-63
2022/11/01 03:53:33;;;;;;;5.97;3.00;;;;;;;2.46;100.00;100287.76;1748842;80;21458;-63
2022/11/01 03:56:02;;;;;;;6.03;2.90;;;;;;;2.47;100.00;100286.91;1749561;80;21018;-63
2022/11/01 03:58:40;;;;;;;3.60;3.10;;;;;;;2.50;100.00;100293.82;1748446;78;21521;-62
2022/11/01 04:00:57;;;;;;;5.15;2.60;;;;;;;2.48;100.00;100291.22;1755544;79;22072;-62
2022/11/01 04:03:24;;;;;;;4.63;2.60;;;;;;;2.48;100.00;100293.81;1760504;79;21448;-62
2022/11/01 04:05:51;;;;;;;4.45;2.72;;;;;;;2.49;100.00;100292.97;1744242;79;21627;-62
2022/11/01 04:08:17;;;;;;;3.83;2.70;;;;;;;2.44;100.00;100300.31;1779835;78;21543;-63
2022/11/01 04:10:44;;;;;;;3.15;2.45;;;;;;;2.44;100.00;100297.72;1794421;78;21429;-62
2022/11/01 04:13:12;;;;;;;5.55;3.08;;;;;;;2.36;100.00;100296.42;1775450;78;21174;-62
2022/11/01 04:21:14;;;;;;;4.83;2.85;;;;;;;2.35;100.00;100297.27;1787133;78;21475;-62
2022/11/01 04:23:42;;;;;;;4.37;2.45;;;;;;;2.37;100.00;100298.13;1773050;78;21183;-62
2022/11/01 04:26:15;;;;;;;10.60;3.00;;;;;;;2.40;100.00;100301.19;1753548;79;21595;-62
2022/11/01 04:28:43;;;;;;;4.70;2.55;;;;;;;2.42;100.00;100309.83;1760151;79;21461;-63
2022/11/01 04:31:10;;;;;;;4.35;3.17;;;;;;;2.40;100.00;100302.48;1749979;79;21442;-62
2022/11/01 04:33:37;;;;;;;4.47;3.25;;;;;;;2.40;100.00;100309.83;1788086;78;20974;-62
2022/11/01 04:36:05;;;;;;;;;;;;;;;2.38;100.00;100310.70;1778239;79;21420;-62
2022/11/01 04:38:32;;;;;;;4.20;2.98;;;;;;;2.32;100.00;100315.45;1764226;79;21801;-63
2022/11/01 04:40:58;;;;;;;4.60;2.90;;;;;;;2.29;100.00;100320.62;1755398;80;21551;-62
2022/11/01 04:43:25;;;;;;;5.78;3.65;;;;;;;2.29;100.00;100321.92;1739882;80;21705;-62
2022/11/01 04:45:57;;;;;;;5.90;2.95;;;;;;;2.28;100.00;100318.47;1768393;78;21564;-62
2022/11/01 04:48:24;;;;;;;5.37;2.95;;;;;;;2.26;100.00;100321.50;1747140;79;20967;-62
2022/11/01 04:50:51;;;;;;;;;;;;;;;2.25;100.00;100323.64;1754656;79;22023;-62
2022/11/01 04:53:17;;;;;;;5.17;3.08;;;;;;;2.21;100.00;100322.34;1740960;80;20497;-62
2022/11/01 04:55:44;;;;;;;7.25;2.90;;;;;;;2.22;100.00;100325.36;1823063;76;21435;-62
2022/11/01 04:58:11;;;;;;;6.92;3.25;;;;;;;2.25;100.00;100321.48;1818551;75;20932;-63
2022/11/01 05:00:38;;;;;;;6.03;2.98;;;;;;;2.25;100.00;100322.78;1786766;77;21436;-63
2022/11/01 05:03:06;;;;;;;3.58;2.67;;;;;;;2.24;100.00;100327.52;1810174;77;22164;-63
2022/11/01 05:05:34;;;;;;;5.33;2.50;;;;;;;2.28;100.00;100329.25;1825737;77;21531;-64
2022/11/01 05:08:03;;;;;;;5.03;2.80;;;;;;;2.28;100.00;100330.15;1759364;79;21542;-63
2022/11/01 05:10:32;;;;;;;4.55;3.17;;;;;;;2.27;100.00;100334.03;1794064;78;21538;-63
2022/11/01 05:12:59;;;;;;;4.87;2.50;;;;;;;2.29;100.00;100337.49;1771487;78;21563;-63
2022/11/01 05:15:27;;;;;;;3.67;2.40;;;;;;;2.29;100.00;100333.16;1761062;78;21083;-63
2022/11/01 05:17:54;;;;;;;3.45;2.80;;;;;;;2.31;100.00;100336.62;1799563;78;21007;-63
2022/11/01 05:20:21;;;;;;;4.87;2.98;;;;;;;2.34;100.00;100332.74;1756571;79;21495;-63
2022/11/01 05:22:49;;;;;;;3.27;2.50;;;;;;;2.40;100.00;100336.22;1753341;80;21512;-65
2022/11/01 05:25:16;;;;;;;3.25;2.45;;;;;;;2.46;100.00;100328.44;1761724;79;20967;-64
2022/11/01 05:27:44;;;;;;;5.92;3.08;;;;;;;2.47;100.00;100331.48;1757655;79;21775;-63
2022/11/01 05:30:12;;;;;;;4.15;3.05;;;;;;;2.50;100.00;100330.16;1765701;79;21626;-63
2022/11/01 05:32:39;;;;;;;7.50;3.00;;;;;;;2.53;100.00;100327.58;1750946;79;21577;-64
2022/11/01 05:35:07;;;;;;;4.63;2.83;;;;;;;2.57;100.00;100327.16;1770392;79;21593;-63
2022/11/01 05:37:35;;;;;;;4.20;2.62;;;;;;;2.60;100.00;100331.03;1766158;79;22227;-63
2022/11/01 05:40:03;;;;;;;4.15;2.77;;;;;;;2.66;100.00;100327.16;1746148;79;21829;-63
2022/11/01 05:42:29;;;;;;;3.62;2.58;;;;;;;2.72;100.00;100331.05;1772194;78;21494;-63
2022/11/01 05:44:56;;;;;;;4.75;2.55;;;;;;;2.78;100.00;100327.59;1760175;79;21017;-63
2022/11/01 05:47:23;;;;;;;3.85;3.15;;;;;;;2.83;100.00;100326.72;1765381;79;21431;-63
2022/11/01 05:49:49;;;;;;;3.83;2.75;;;;;;;2.86;100.00;100329.33;1779898;79;21469;-63
2022/11/01 05:52:16;;;;;;;8.98;2.87;;;;;;;2.90;100.00;100326.27;1760142;79;21788;-64
2022/11/01 05:54:43;;;;;;;3.98;2.80;;;;;;;2.96;100.00;100329.30;1758929;79;21547;-63
2022/11/01 05:57:09;;;;;;;3.67;2.83;;;;;;;3.04;100.00;100328.87;1775807;78;21739;-63
2022/11/01 05:59:38;;;;;;;3.35;2.60;;;;;;;3.09;100.00;100332.34;1765815;79;21648;-63
2022/11/01 06:02:04;;;;;;;3.10;2.70;;;;;;;3.16;100.00;100328.84;1760663;78;21073;-63
2022/11/01 11:37:32;;;;;;;2.30;1.90;;;;;;;12.58;100.00;100144.52;1842285;76;27180;-65
2022/11/01 11:40:24;;;;;;;3.27;1.90;;;;;;;12.68;100.00;100142.78;1807394;77;21504;-65
2022/11/01 11:42:54;;;;;;;1.75;1.62;;;;;;;12.69;96.58;100141.40;1816120;78;21858;-65
2022/11/01 11:45:26;;;;;;;2.45;1.72;;;;;;;12.87;100.00;100142.39;1777986;79;21568;-65
2022/11/01 11:47:54;;;;;;;2.92;1.92;;;;;;;13.00;96.89;100140.91;1817271;76;21662;-65
2022/11/01 11:50:32;;;;;;;3.52;2.30;;;;;;;13.19;94.94;100138.29;1808843;77;21501;-62
2022/11/01 11:53:08;;;;;;;2.37;1.65;;;;;;;13.37;94.55;100138.39;1816101;77;21409;-63
2022/11/01 11:55:54;;;;;;;2.47;1.72;;;;;;;13.55;93.13;100138.86;1799811;78;21902;-63
2022/11/01 11:58:32;;;;;;;2.02;1.82;;;;;;;13.69;93.10;100131.59;1809670;77;21567;-64
2022/11/01 12:01:08;;;;;;;2.70;2.02;;;;;;;13.80;91.29;100135.04;1771851;78;21116;-64
2022/11/01 12:03:51;;;;;;;4.42;2.33;;;;;;;13.91;86.26;100130.56;1807653;77;21099;-61
2022/11/01 12:06:26;;;;;;;2.98;2.00;;;;;;;14.01;83.05;100126.08;1806949;78;21642;-61
2022/11/01 12:08:55;;;;;;;3.02;2.05;;;;;;;14.13;83.49;100133.02;1815694;78;21975;-62
2022/11/01 12:11:23;;;;;;;4.12;2.40;;;;;;;14.20;81.70;100131.31;1807282;77;21580;-61
2022/11/01 12:14:21;;;;;;;5.22;2.52;;;;;;;14.33;80.18;100120.94;1809568;78;21525;-61
2022/11/01 12:16:48;;;;;;;4.60;2.72;;;;;;;14.39;76.86;100119.33;1807472;77;21045;-60
2022/11/01 12:19:29;;;;;;;5.03;2.37;;;;;;;14.47;75.77;100127.34;1816898;77;21069;-65
2022/11/01 12:22:00;;;;;;;2.75;2.05;;;;;;;14.56;73.52;100127.72;1812725;77;21741;-63
2022/11/01 12:24:49;;;;;;;3.42;2.50;;;;;;;14.63;73.95;100121.66;1810674;76;21537;-71
2022/11/01 12:27:20;;;;;;;6.55;2.72;;;;;;;14.59;72.36;100124.93;1814141;77;21517;-65
2022/11/01 12:29:59;;;;;;;3.75;2.50;;;;;;;14.55;73.52;100119.86;1799458;77;21557;-63
2022/11/01 12:32:32;;;;;;;3.77;2.33;;;;;;;14.59;74.12;100116.14;1779006;78;21739;-63
2022/11/01 12:35:03;;;;;;;4.33;3.00;;;;;;;14.64;74.15;100122.06;1811542;77;22218;-64
2022/11/01 12:37:52;;;;;;;4.47;2.60;;;;;;;14.73;75.28;100120.27;1809683;77;21049;-63
2022/11/01 12:40:37;;;;;;;4.72;2.70;;;;;;;14.87;75.21;100130.59;1806957;77;21578;-64
2022/11/01 12:43:33;;;;;;;3.40;2.37;;;;;;;14.91;72.35;100121.55;1817158;77;21496;-64
2022/11/01 12:46:07;;;;;;;3.50;2.20;;;;;;;14.98;70.05;100122.94;1813977;77;21016;-63
2022/11/01 12:48:43;;;;;;;3.85;2.20;;;;;;;14.93;68.52;100123.63;1768061;78;21578;-64
2022/11/01 12:51:30;;;;;;;3.12;2.22;;;;;;;14.90;69.44;100125.11;1819394;77;21606;-66
2022/11/01 12:54:08;;;;;;;4.53;2.65;;;;;;;14.89;68.80;100130.03;1804383;78;21524;-66
2022/11/01 12:56:35;;;;;;;4.12;2.80;;;;;;;14.77;68.22;100126.25;1810044;77;21411;-65
2022/11/01 12:59:03;;;;;;;3.98;2.60;;;;;;;14.63;66.86;100120.34;1818036;77;21634;-66
2022/11/01 13:01:52;;;;;;;4.75;2.55;;;;;;;14.89;65.43;100124.27;1820144;77;21815;-66
2022/11/01 13:04:36;;;;;;;2.70;2.20;;;;;;;15.19;62.11;100116.94;1817803;77;21454;-67
2022/11/01 13:07:24;;;;;;;6.55;2.80;;;;;;;15.34;60.04;100110.80;1791705;78;21558;-67
2022/11/01 13:10:15;;;;;;;3.27;2.35;;;;;;;15.50;60.39;100115.24;1805684;77;21597;-67
2022/11/01 13:13:16;;;;;;;3.40;2.58;;;;;;;15.61;58.78;100113.33;1804022;78;21508;-63
2022/11/01 13:16:15;;;;;;;3.72;2.47;;;;;;;15.59;57.21;100108.11;1821529;77;21568;-66
2022/11/01 13:19:01;;;;;;;;;;;;;;;15.40;56.83;100104.30;1817645;78;21548;-66
2022/11/01 13:21:56;;;;;;;5.12;1.95;;;;;;;15.01;43.46;100100.23;1813601;78;20400;-65
2022/11/01 13:24:40;;;;;;;3.52;2.35;;;;;;;14.79;60.40;100090.81;1817850;78;21493;-63
2022/11/01 13:27:20;;;;;;;4.08;1.95;;;;;;;14.60;61.16;100096.70;1793359;78;21441;-65
2022/11/01 13:30:04;;;;;;;2.65;1.82;;;;;;;14.44;62.12;100086.48;1803331;78;22047;-66
2022/11/01 13:32:46;;;;;;;2.37;1.92;;;;;;;14.36;65.38;100086.41;1808270;77;21017;-63
2022/11/01 13:35:55;;;;;;;1.95;1.57;;;;;;;14.26;66.60;100089.15;1809814;78;21664;-64
2022/11/01 13:38:48;;;;;;;3.25;1.95;;;;;;;14.13;67.49;100081.45;1760901;78;21399;-65
2022/11/01 13:41:51;;;;;;;5.35;1.80;;;;;;;13.98;66.73;100088.36;1821490;77;21524;-66
2022/11/01 13:44:22;;;;;;;1.85;1.62;;;;;;;13.83;70.45;100092.14;1803203;77;21540;-66
2022/11/01 13:47:21;;;;;;;2.55;1.72;;;;;;;13.70;69.99;100084.90;1801236;77;21485;-65
2022/11/01 19:49:47;;;;;;;16.42;9.23;;;;;;;5.90;100.00;99925.43;1769183;77;21448;-76
2022/11/01 19:52:34;;;;;;;14.68;8.35;;;;;;;6.02;100.00;99919.98;1800531;77;21707;-75
2022/11/01 19:55:01;;;;;;;15.17;8.57;;;;;;;6.14;100.00;99917.15;1789184;77;21584;-71
2022/11/01 19:57:33;;;;;;;12.88;8.45;;;;;;;6.30;100.00;99905.07;1814279;77;21689;-72
2022/11/01 20:00:15;;;;;;;15.50;9.40;;;;;;;6.43;100.00;99902.61;1803930;76;21583;-75
2022/11/01 20:02:44;;;;;;;12.82;8.58;;;;;;;6.52;100.00;99911.55;1817421;76;21782;-73
2022/11/01 20:05:31;;;;;;;18.25;8.35;;;;;;;6.58;100.00;99911.87;1797905;77;21569;-74
2022/11/01 20:08:07;;;;;;;14.58;8.85;;;;;;;6.66;100.00;99907.77;1819956;76;22046;-74
2022/11/01 20:10:34;;;;;;;12.68;7.72;;;;;;;6.73;100.00;99906.29;1775232;76;20948;-73
2022/11/01 20:13:01;;;;;;;12.43;7.97;;;;;;;6.90;100.00;99919.42;1793504;76;21543;-74
2022/11/01 20:15:29;;;;;;;14.47;8.35;;;;;;;6.90;100.00;99919.42;1795844;77;21581;-73
2022/11/01 20:17:56;;;;;;;14.98;8.75;;;;;;;6.97;100.00;99927.55;1812702;77;21469;-71
2022/11/01 20:20:25;;;;;;;14.75;9.23;;;;;;;7.01;100.00;99930.03;1796950;77;22107;-71
2022/11/01 20:22:52;;;;;;;16.73;9.98;;;;;;;7.07;100.00;99922.95;1794998;76;21244;-71
2022/11/01 20:25:20;;;;;;;22.30;11.43;;;;;;;7.12;100.00;99915.83;1807871;76;21541;-74
2022/11/01 20:27:47;;;;;;;21.97;12.17;;;;;;;7.17;100.00;99903.05;1816254;76;21565;-73
2022/11/01 20:30:15;;;;;;;27.00;13.00;;;;;;;7.22;100.00;99904.27;1821968;77;22257;-74
2022/11/01 20:32:42;;;;;;;25.35;13.62;;;;;;;7.25;100.00;99895.47;1811198;76;21665;-73
2022/11/01 20:35:10;;;;;;;33.63;13.75;;;;;;;7.25;100.00;99883.70;1809251;77;21443;-74
2022/11/01 20:37:37;;;;;;;24.07;13.58;;;;;;;7.26;100.00;99878.89;1813530;76;26005;-73
2022/11/01 20:40:07;;;;;;;24.00;14.65;;;;;;;7.24;100.00;99885.47;1808922;77;21530;-72
2022/11/01 20:42:34;;;;;;;23.57;14.07;;;;;;;7.25;100.00;99881.94;1798891;76;21021;-74
2022/11/01 20:45:01;;;;;;;29.30;15.45;;;;;;;7.26;100.00;99886.28;1810896;76;22089;-73
2022/11/01 20:47:28;;;;;;;27.73;16.87;;;;;;;7.29;100.00;99884.91;1799480;77;21798;-72
2022/11/01 20:49:55;;;;;;;36.03;19.27;;;;;;;7.29;100.00;99871.83;1781563;77;21555;-73
2022/11/01 20:52:23;;;;;;;30.95;16.73;;;;;;;7.29;100.00;99871.83;1814593;77;22029;-73
2022/11/01 20:54:50;;;;;;;30.53;15.37;;;;;;;7.30;100.00;99870.92;1810024;77;20944;-74
2022/11/01 20:57:17;;;;;;;27.20;15.68;;;;;;;7.31;100.00;99859.57;1749973;80;21877;-73
2022/11/01 20:59:48;;;;;;;31.87;15.08;;;;;;;7.30;100.00;99869.61;1749207;80;21100;-73
2022/11/01 21:02:17;;;;;;;27.52;14.78;;;;;;;7.26;100.00;99862.75;1761605;78;21494;-72
2022/11/01 21:04:44;;;;;;;28.77;15.58;;;;;;;7.23;100.00;99863.27;1746524;79;21541;-73
2022/11/01 21:07:11;;;;;;;27.62;15.40;;;;;;;7.19;100.00;99872.95;1776827;78;21699;-73
2022/11/01 21:09:45;;;;;;;29.07;14.35;;;;;;;7.15;100.00;99873.47;1766699;78;21592;-72
2022/11/01 21:12:37;;;;;;;27.98;15.30;;;;;;;7.13;100.00;99873.11;1773999;78;21550;-71
2022/11/01 21:15:27;;;;;;;28.12;14.13;;;;;;;7.11;100.00;99873.59;1767031;78;21517;-70
2022/11/01 21:18:14;;;;;;;24.45;14.50;;;;;;;6.99;100.00;99860.39;1750952;79;20970;-71
2022/11/01 21:20:46;;;;;;;;;;;;;;;6.90;100.00;99847.09;1752283;79;21434;-71
2022/11/01 21:23:34;;;;;;;22.37;13.10;;;;;;;6.75;100.00;99845.70;1784700;78;21802;-71
2022/11/01 21:26:11;;;;;;;24.12;13.55;;;;;;;6.69;100.00;99847.62;1749520;79;21636;-72
2022/11/01 21:28:48;;;;;;;26.77;13.95;;;;;;;6.64;100.00;99854.23;1732484;80;23331;-72
2022/11/01 21:31:35;;;;;;;24.25;12.85;;;;;;;6.57;100.00;99867.91;1792509;76;21063;-73
2022/11/01 21:34:14;;;;;;;21.30;12.45;;;;;;;6.54;100.00;99871.03;1801768;77;21554;-73
2022/11/01 21:36:47;;;;;;;21.82;12.60;;;;;;;6.48;100.00;99869.84;1794426;77;21780;-72
2022/11/01 21:39:25;;;;;;;23.07;12.93;;;;;;;6.40;100.00;99864.80;1814470;76;21569;-73
2022/11/01 21:42:26;;;;;;;22.48;13.55;;;;;;;6.38;100.00;99862.66;1785214;77;21539;-74
2022/11/01 21:44:51;;;;;;;;;;;;;;;6.34;100.00;99851.42;1781699;77;21058;-73
2022/11/01 21:47:30;;;;;;;23.70;12.23;;;;;;;6.19;100.00;99844.78;1779126;77;20576;-74
2022/11/01 21:49:57;;;;;;;20.95;12.33;;;;;;;6.15;100.00;99843.14;1825286;76;21411;-74
2022/11/01 21:52:25;;;;;;;25.05;14.03;;;;;;;6.08;100.00;99834.16;1789512;77;21411;-72
2022/11/01 21:54:52;;;;;;;24.20;13.65;;;;;;;6.00;100.00;99833.02;1807975;76;21427;-72
2022/11/01 21:57:21;;;;;;;24.57;13.60;;;;;;;5.93;100.00;99828.33;1816161;77;21577;-71
2022/11/01 21:59:48;;;;;;;22.42;14.10;;;;;;;5.92;100.00;99834.91;1805781;77;21465;-70
2022/11/01 22:02:15;;;;;;;25.23;13.08;;;;;;;5.88;100.00;99831.92;1815504;77;26958;-70
2022/11/01 22:04:43;;;;;;;23.90;13.68;;;;;;;5.84;100.00;99824.18;1815344;77;21451;-71
2022/11/01 22:07:11;;;;;;;24.12;13.32;;;;;;;5.83;100.00;99828.97;1797196;77;21711;-71
2022/11/01 22:09:38;;;;;;;22.67;13.90;;;;;;;5.83;100.00;99822.45;1797518;76;21525;-72
2022/11/01 22:12:05;;;;;;;19.67;12.60;;;;;;;5.81;100.00;99825.98;1796626;77;21563;-71
2022/11/01 22:14:33;;;;;;;25.57;14.30;;;;;;;5.79;100.00;99824.71;1786543;77;22242;-71
2022/11/01 22:17:02;;;;;;;22.55;13.43;;;;;;;5.74;100.00;99825.70;1802187;76;21082;-71
2022/11/01 22:19:29;;;;;;;21.82;13.68;;;;;;;5.73;100.00;99825.30;1821612;76;21400;-72
2022/11/01 22:21:56;;;;;;;24.37;14.23;;;;;;;5.71;100.00;99820.53;1798826;77;20951;-71
2022/11/01 22:24:28;;;;;;;28.05;15.68;;;;;;;5.72;100.00;99825.72;1810208;76;21561;-71
2022/11/01 22:26:57;;;;;;;23.30;14.47;;;;;;;5.71;100.00;99817.50;1801181;76;21598;-72
2022/11/01 22:29:24;;;;;;;23.18;14.35;;;;;;;5.72;100.00;99802.23;1815574;77;21630;-71
2022/11/01 22:31:52;;;;;;;24.65;14.83;;;;;;;5.72;100.00;99800.94;1799030;77;21581;-71
2022/11/01 22:34:20;;;;;;;28.52;14.80;;;;;;;5.74;100.00;99794.39;1794672;77;21038;-71
2022/11/01 22:36:47;;;;;;;27.65;16.62;;;;;;;5.71;100.00;99797.93;1805137;77;21581;-71
2022/11/01 22:39:23;;;;;;;29.07;16.87;;;;;;;5.63;100.00;99795.48;1791031;77;21886;-72
2022/11/01 22:41:52;;;;;;;26.95;17.37;;;;;;;5.55;100.00;99788.23;1797807;77;21547;-71
2022/11/01 22:44:24;;;;;;;;;;;;;;;5.49;100.00;99780.98;1822295;76;21668;-71
2022/11/01 22:46:58;;;;;;;28.95;15.93;;;;;;;5.37;100.00;99782.06;1819643;76;20500;-71
2022/11/01 22:49:36;;;;;;;28.23;15.88;;;;;;;5.33;100.00;99777.38;1815293;76;21604;-71
2022/11/01 22:52:17;;;;;;;28.30;16.87;;;;;;;5.31;100.00;99773.92;1799021;77;22275;-71
2022/11/01 22:54:49;;;;;;;30.82;17.25;;;;;;;5.22;100.00;99769.76;1783746;77;21602;-71
2022/11/01 22:57:28;;;;;;;29.18;17.23;;;;;;;5.16;100.00;99767.27;1804509;77;21535;-71
2022/11/01 22:59:58;;;;;;;27.32;15.53;;;;;;;5.15;100.00;99766.84;1814640;76;21081;-71
2022/11/01 23:02:33;;;;;;;28.17;16.37;;;;;;;5.15;100.00;99772.52;1815986;76;21106;-71
2022/11/01 23:05:12;;;;;;;27.70;16.52;;;;;;;5.20;100.00;99762.87;1806964;77;21839;-72
2022/11/01 23:07:48;;;;;;;28.57;15.68;;;;;;;5.12;100.00;99764.28;1815613;76;21540;-71
2022/11/01 23:10:33;;;;;;;26.30;15.63;;;;;;;5.00;100.00;99759.31;1815787;77;21463;-71
2022/11/01 23:16:23;;;;;;;28.98;14.53;;;;;;;4.95;100.00;99751.56;1826233;77;21538;-71
2022/11/01 23:18:52;;;;;;;30.12;14.68;;;;;;;4.96;100.00;99749.84;1811744;77;21825;-72
2022/11/01 23:21:20;;;;;;;25.45;14.73;;;;;;;5.00;100.00;99738.02;1816393;76;21569;-70
2022/11/01 23:23:48;;;;;;;43.38;23.40;;;;;;;5.04;100.00;99731.85;1789132;77;21580;-71
2022/11/01 23:26:16;;;;;;;47.90;25.72;;;;;;;5.03;100.00;99735.81;1812744;77;21558;-71
2022/11/01 23:28:51;;;;;;;45.65;24.72;;;;;;;4.97;100.00;99742.00;1812176;76;21503;-70
2022/11/01 23:31:18;;;;;;;42.53;22.25;;;;;;;4.92;100.00;99742.52;1798901;76;22202;-71
2022/11/01 23:33:47;;;;;;;38.17;21.05;;;;;;;4.88;100.00;99738.25;1735243;80;21593;-71
2022/11/01 23:36:29;;;;;;;36.33;20.60;;;;;;;4.85;100.00;99735.24;1725334;80;21685;-70